sensor_id;sensor_type;location;lat;lon;timestamp;P1;durP1;ratioP1;P2;durP2;ratioP2
60582;SDS011;46415;47.536;19.066;2022-11-15T00:01:49;40.00;;;8.07;;
60582;SDS011;46415;47.536;19.066;2022-11-15T00:05:10;10.07;;;6.22;;
60582;SDS011;46415;47.536;19.066;2022-11-15T00:08:31;9.27;;;7.35;;
60582;SDS011;46415;47.536;19.066;2022-11-15T00:11:53;28.85;;;8.48;;
60582;SDS011;46415;47.536;19.066;2022-11-15T00:15:14;11.70;;;7.70;;
60582;SDS011;46415;47.536;19.066;2022-11-15T00:18:35;11.32;;;8.23;;
60582;SDS011;46415;47.536;19.066;2022-11-15T00:21:56;10.13;;;7.97;;
60582;SDS011;46415;47.536;19.066;2022-11-15T00:25:17;13.55;;;7.55;;
60582;SDS011;46415;47.536;19.066;2022-11-15T00:28:39;22.25;;;8.43;;
60582;SDS011;46415;47.536;19.066;2022-11-15T00:32:00;14.40;;;8.27;;
60582;SDS011;46415;47.536;19.066;2022-11-15T00:35:21;10.70;;;7.82;;
60582;SDS011;46415;47.536;19.066;2022-11-15T00:38:43;15.32;;;8.70;;
60582;SDS011;46415;47.536;19.066;2022-11-15T00:42:04;13.50;;;9.15;;
60582;SDS011;46415;47.536;19.066;2022-11-15T00:45:25;13.30;;;8.73;;
60582;SDS011;46415;47.536;19.066;2022-11-15T00:48:46;37.72;;;8.48;;
60582;SDS011;46415;47.536;19.066;2022-11-15T00:52:08;11.43;;;8.10;;
60582;SDS011;46415;47.536;19.066;2022-11-15T00:55:29;19.40;;;8.90;;
60582;SDS011;46415;47.536;19.066;2022-11-15T00:58:50;24.12;;;8.75;;
60582;SDS011;46415;47.536;19.066;2022-11-15T01:02:11;14.77;;;6.72;;
60582;SDS011;46415;47.536;19.066;2022-11-15T01:05:32;8.68;;;7.60;;
60582;SDS011;46415;47.536;19.066;2022-11-15T01:08:53;14.05;;;8.27;;
60582;SDS011;46415;47.536;19.066;2022-11-15T01:12:14;14.45;;;7.60;;
60582;SDS011;46415;47.536;19.066;2022-11-15T01:15:38;12.88;;;8.02;;
60582;SDS011;46415;47.536;19.066;2022-11-15T01:19:00;14.90;;;8.98;;
60582;SDS011;46415;47.536;19.066;2022-11-15T01:22:21;13.65;;;8.90;;
60582;SDS011;46415;47.536;19.066;2022-11-15T01:25:42;11.45;;;7.22;;
60582;SDS011;46415;47.536;19.066;2022-11-15T01:29:03;11.68;;;8.02;;
60582;SDS011;46415;47.536;19.066;2022-11-15T01:32:24;14.63;;;8.77;;
60582;SDS011;46415;47.536;19.066;2022-11-15T01:35:45;9.02;;;8.02;;
60582;SDS011;46415;47.536;19.066;2022-11-15T01:39:07;11.20;;;7.12;;
60582;SDS011;46415;47.536;19.066;2022-11-15T01:42:28;18.65;;;9.18;;
60582;SDS011;46415;47.536;19.066;2022-11-15T01:45:51;12.13;;;7.70;;
60582;SDS011;46415;47.536;19.066;2022-11-15T01:49:18;12.32;;;7.72;;
60582;SDS011;46415;47.536;19.066;2022-11-15T01:52:41;13.88;;;9.85;;
60582;SDS011;46415;47.536;19.066;2022-11-15T01:56:04;19.42;;;8.35;;
60582;SDS011;46415;47.536;19.066;2022-11-15T01:59:29;11.12;;;7.53;;
60582;SDS011;46415;47.536;19.066;2022-11-15T02:02:50;12.23;;;8.05;;
60582;SDS011;46415;47.536;19.066;2022-11-15T02:06:11;11.57;;;7.50;;
60582;SDS011;46415;47.536;19.066;2022-11-15T02:09:32;13.50;;;8.43;;
60582;SDS011;46415;47.536;19.066;2022-11-15T02:12:53;10.23;;;7.78;;
60582;SDS011;46415;47.536;19.066;2022-11-15T02:20:28;14.82;;;9.05;;
60582;SDS011;46415;47.536;19.066;2022-11-15T02:35:11;13.00;;;8.63;;
60582;SDS011;46415;47.536;19.066;2022-11-15T02:42:30;16.42;;;8.40;;
60582;SDS011;46415;47.536;19.066;2022-11-15T02:46:20;12.50;;;7.68;;
60582;SDS011;46415;47.536;19.066;2022-11-15T02:50:12;15.65;;;8.82;;
60582;SDS011;46415;47.536;19.066;2022-11-15T02:53:38;16.37;;;10.00;;
60582;SDS011;46415;47.536;19.066;2022-11-15T02:57:02;14.87;;;8.55;;
60582;SDS011;46415;47.536;19.066;2022-11-15T03:00:32;12.88;;;7.80;;
60582;SDS011;46415;47.536;19.066;2022-11-15T03:04:02;14.63;;;9.85;;
60582;SDS011;46415;47.536;19.066;2022-11-15T03:07:54;32.63;;;8.27;;
60582;SDS011;46415;47.536;19.066;2022-11-15T03:11:26;14.45;;;8.30;;
60582;SDS011;46415;47.536;19.066;2022-11-15T03:18:29;13.02;;;7.43;;
60582;SDS011;46415;47.536;19.066;2022-11-15T03:21:52;8.35;;;5.43;;
60582;SDS011;46415;47.536;19.066;2022-11-15T03:25:22;12.70;;;7.30;;
60582;SDS011;46415;47.536;19.066;2022-11-15T03:28:55;15.32;;;7.40;;
60582;SDS011;46415;47.536;19.066;2022-11-15T03:32:23;14.43;;;8.50;;
60582;SDS011;46415;47.536;19.066;2022-11-15T03:35:47;14.48;;;9.00;;
60582;SDS011;46415;47.536;19.066;2022-11-15T03:39:09;15.00;;;8.43;;
60582;SDS011;46415;47.536;19.066;2022-11-15T03:42:46;13.55;;;6.93;;
60582;SDS011;46415;47.536;19.066;2022-11-15T03:46:17;12.88;;;7.15;;
60582;SDS011;46415;47.536;19.066;2022-11-15T03:49:44;8.70;;;6.07;;
60582;SDS011;46415;47.536;19.066;2022-11-15T03:53:11;8.60;;;6.28;;
60582;SDS011;46415;47.536;19.066;2022-11-15T03:56:33;9.93;;;6.72;;
60582;SDS011;46415;47.536;19.066;2022-11-15T03:59:54;9.10;;;6.50;;
60582;SDS011;46415;47.536;19.066;2022-11-15T04:03:15;9.60;;;6.70;;
60582;SDS011;46415;47.536;19.066;2022-11-15T04:06:36;11.43;;;6.18;;
60582;SDS011;46415;47.536;19.066;2022-11-15T04:10:00;8.40;;;6.82;;
60582;SDS011;46415;47.536;19.066;2022-11-15T04:13:23;12.50;;;6.72;;
60582;SDS011;46415;47.536;19.066;2022-11-15T04:16:44;12.15;;;6.47;;
60582;SDS011;46415;47.536;19.066;2022-11-15T04:20:06;10.77;;;6.62;;
60582;SDS011;46415;47.536;19.066;2022-11-15T04:23:48;8.77;;;6.05;;
60582;SDS011;46415;47.536;19.066;2022-11-15T04:27:11;9.18;;;5.95;;
60582;SDS011;46415;47.536;19.066;2022-11-15T04:30:34;8.10;;;6.25;;
60582;SDS011;46415;47.536;19.066;2022-11-15T04:33:55;11.02;;;6.18;;
60582;SDS011;46415;47.536;19.066;2022-11-15T04:37:16;9.57;;;6.12;;
60582;SDS011;46415;47.536;19.066;2022-11-15T04:40:38;9.43;;;6.15;;
60582;SDS011;46415;47.536;19.066;2022-11-15T04:43:59;9.57;;;6.82;;
60582;SDS011;46415;47.536;19.066;2022-11-15T04:47:20;9.40;;;6.35;;
60582;SDS011;46415;47.536;19.066;2022-11-15T04:50:47;8.02;;;5.72;;
60582;SDS011;46415;47.536;19.066;2022-11-15T04:54:08;10.70;;;6.55;;
60582;SDS011;46415;47.536;19.066;2022-11-15T04:57:29;9.32;;;5.60;;
60582;SDS011;46415;47.536;19.066;2022-11-15T05:00:53;7.90;;;5.20;;
60582;SDS011;46415;47.536;19.066;2022-11-15T05:04:14;9.15;;;6.00;;
60582;SDS011;46415;47.536;19.066;2022-11-15T05:07:41;12.35;;;6.15;;
60582;SDS011;46415;47.536;19.066;2022-11-15T05:11:02;9.73;;;5.87;;
60582;SDS011;46415;47.536;19.066;2022-11-15T05:14:23;11.90;;;5.87;;
60582;SDS011;46415;47.536;19.066;2022-11-15T05:17:44;7.37;;;5.62;;
60582;SDS011;46415;47.536;19.066;2022-11-15T05:21:06;9.60;;;6.95;;
60582;SDS011;46415;47.536;19.066;2022-11-15T05:24:29;11.23;;;6.87;;
60582;SDS011;46415;47.536;19.066;2022-11-15T05:27:50;11.02;;;5.78;;
60582;SDS011;46415;47.536;19.066;2022-11-15T05:31:12;10.82;;;6.37;;
60582;SDS011;46415;47.536;19.066;2022-11-15T05:34:35;9.32;;;5.90;;
60582;SDS011;46415;47.536;19.066;2022-11-15T05:37:56;8.57;;;5.90;;
60582;SDS011;46415;47.536;19.066;2022-11-15T05:41:19;11.63;;;7.30;;
60582;SDS011;46415;47.536;19.066;2022-11-15T05:44:46;11.45;;;7.28;;
60582;SDS011;46415;47.536;19.066;2022-11-15T05:48:09;14.82;;;8.02;;
60582;SDS011;46415;47.536;19.066;2022-11-15T05:51:31;8.85;;;6.55;;
60582;SDS011;46415;47.536;19.066;2022-11-15T05:54:51;9.90;;;6.43;;
60582;SDS011;46415;47.536;19.066;2022-11-15T05:58:13;11.73;;;7.12;;
60582;SDS011;46415;47.536;19.066;2022-11-15T06:01:34;9.88;;;7.40;;
60582;SDS011;46415;47.536;19.066;2022-11-15T06:04:56;11.88;;;8.00;;
60582;SDS011;46415;47.536;19.066;2022-11-15T06:08:17;12.00;;;6.70;;
60582;SDS011;46415;47.536;19.066;2022-11-15T06:11:38;11.70;;;7.12;;
60582;SDS011;46415;47.536;19.066;2022-11-15T06:14:59;11.75;;;7.65;;
60582;SDS011;46415;47.536;19.066;2022-11-15T06:18:19;10.52;;;6.80;;
60582;SDS011;46415;47.536;19.066;2022-11-15T06:21:40;12.77;;;7.72;;
60582;SDS011;46415;47.536;19.066;2022-11-15T06:25:02;11.12;;;7.45;;
60582;SDS011;46415;47.536;19.066;2022-11-15T06:28:28;13.23;;;8.05;;
60582;SDS011;46415;47.536;19.066;2022-11-15T06:31:53;14.32;;;8.45;;
60582;SDS011;46415;47.536;19.066;2022-11-15T06:35:14;23.12;;;8.30;;
60582;SDS011;46415;47.536;19.066;2022-11-15T06:38:35;12.30;;;7.75;;
60582;SDS011;46415;47.536;19.066;2022-11-15T06:41:57;15.80;;;7.05;;
60582;SDS011;46415;47.536;19.066;2022-11-15T06:45:18;14.52;;;8.13;;
60582;SDS011;46415;47.536;19.066;2022-11-15T06:48:38;12.05;;;8.40;;
60582;SDS011;46415;47.536;19.066;2022-11-15T06:51:59;17.37;;;7.15;;
60582;SDS011;46415;47.536;19.066;2022-11-15T06:55:20;10.48;;;7.90;;
60582;SDS011;46415;47.536;19.066;2022-11-15T06:58:41;11.32;;;7.55;;
60582;SDS011;46415;47.536;19.066;2022-11-15T07:02:03;14.73;;;8.07;;
60582;SDS011;46415;47.536;19.066;2022-11-15T07:05:24;10.02;;;7.30;;
60582;SDS011;46415;47.536;19.066;2022-11-15T07:08:45;15.95;;;8.90;;
60582;SDS011;46415;47.536;19.066;2022-11-15T07:12:06;11.38;;;7.18;;
60582;SDS011;46415;47.536;19.066;2022-11-15T07:15:27;13.23;;;8.45;;
60582;SDS011;46415;47.536;19.066;2022-11-15T07:18:48;13.40;;;8.95;;
60582;SDS011;46415;47.536;19.066;2022-11-15T07:22:09;14.00;;;7.93;;
60582;SDS011;46415;47.536;19.066;2022-11-15T07:25:30;12.20;;;7.57;;
60582;SDS011;46415;47.536;19.066;2022-11-15T07:28:52;10.77;;;7.80;;
60582;SDS011;46415;47.536;19.066;2022-11-15T07:32:13;14.27;;;8.32;;
60582;SDS011;46415;47.536;19.066;2022-11-15T07:35:34;12.60;;;8.10;;
60582;SDS011;46415;47.536;19.066;2022-11-15T07:38:55;12.05;;;7.40;;
60582;SDS011;46415;47.536;19.066;2022-11-15T07:42:16;11.90;;;7.70;;
60582;SDS011;46415;47.536;19.066;2022-11-15T07:45:56;13.27;;;7.87;;
60582;SDS011;46415;47.536;19.066;2022-11-15T07:49:19;12.35;;;8.10;;
60582;SDS011;46415;47.536;19.066;2022-11-15T07:52:40;15.00;;;8.20;;
60582;SDS011;46415;47.536;19.066;2022-11-15T07:56:01;17.98;;;8.85;;
60582;SDS011;46415;47.536;19.066;2022-11-15T07:59:23;23.83;;;9.50;;
60582;SDS011;46415;47.536;19.066;2022-11-15T08:02:44;16.37;;;9.70;;
60582;SDS011;46415;47.536;19.066;2022-11-15T08:06:06;17.52;;;8.88;;
60582;SDS011;46415;47.536;19.066;2022-11-15T08:09:27;18.23;;;10.00;;
60582;SDS011;46415;47.536;19.066;2022-11-15T08:12:56;14.02;;;9.25;;
60582;SDS011;46415;47.536;19.066;2022-11-15T08:16:23;15.75;;;10.15;;
60582;SDS011;46415;47.536;19.066;2022-11-15T08:19:44;14.38;;;9.23;;
60582;SDS011;46415;47.536;19.066;2022-11-15T08:23:07;15.05;;;9.48;;
60582;SDS011;46415;47.536;19.066;2022-11-15T08:26:30;16.25;;;9.85;;
60582;SDS011;46415;47.536;19.066;2022-11-15T08:29:51;13.45;;;8.88;;
60582;SDS011;46415;47.536;19.066;2022-11-15T08:33:18;15.88;;;9.98;;
60582;SDS011;46415;47.536;19.066;2022-11-15T08:36:39;14.30;;;9.32;;
60582;SDS011;46415;47.536;19.066;2022-11-15T08:40:06;18.42;;;10.40;;
60582;SDS011;46415;47.536;19.066;2022-11-15T08:43:28;24.12;;;10.95;;
60582;SDS011;46415;47.536;19.066;2022-11-15T08:46:50;17.10;;;10.60;;
60582;SDS011;46415;47.536;19.066;2022-11-15T08:50:11;17.23;;;10.90;;
60582;SDS011;46415;47.536;19.066;2022-11-15T08:53:32;16.40;;;10.27;;
60582;SDS011;46415;47.536;19.066;2022-11-15T08:56:54;15.45;;;9.68;;
60582;SDS011;46415;47.536;19.066;2022-11-15T09:00:15;16.85;;;9.63;;
60582;SDS011;46415;47.536;19.066;2022-11-15T09:03:37;16.73;;;9.32;;
60582;SDS011;46415;47.536;19.066;2022-11-15T09:07:01;19.90;;;11.05;;
60582;SDS011;46415;47.536;19.066;2022-11-15T09:10:23;37.42;;;11.95;;
60582;SDS011;46415;47.536;19.066;2022-11-15T09:13:45;21.95;;;12.37;;
60582;SDS011;46415;47.536;19.066;2022-11-15T09:17:09;18.65;;;11.15;;
60582;SDS011;46415;47.536;19.066;2022-11-15T09:20:30;19.33;;;10.88;;
60582;SDS011;46415;47.536;19.066;2022-11-15T09:23:52;16.08;;;8.80;;
60582;SDS011;46415;47.536;19.066;2022-11-15T09:27:13;15.68;;;9.63;;
60582;SDS011;46415;47.536;19.066;2022-11-15T09:30:35;13.10;;;9.30;;
60582;SDS011;46415;47.536;19.066;2022-11-15T09:33:56;16.55;;;10.73;;
60582;SDS011;46415;47.536;19.066;2022-11-15T09:37:17;21.48;;;11.40;;
60582;SDS011;46415;47.536;19.066;2022-11-15T09:40:38;20.85;;;11.52;;
60582;SDS011;46415;47.536;19.066;2022-11-15T09:51:54;22.23;;;11.48;;
60582;SDS011;46415;47.536;19.066;2022-11-15T09:54:49;20.95;;;11.23;;
60582;SDS011;46415;47.536;19.066;2022-11-15T09:58:05;17.80;;;11.07;;
60582;SDS011;46415;47.536;19.066;2022-11-15T10:04:49;19.90;;;12.50;;
60582;SDS011;46415;47.536;19.066;2022-11-15T10:11:22;20.10;;;11.00;;
60582;SDS011;46415;47.536;19.066;2022-11-15T10:14:43;19.20;;;11.65;;
60582;SDS011;46415;47.536;19.066;2022-11-15T10:31:30;18.05;;;10.30;;
60582;SDS011;46415;47.536;19.066;2022-11-15T10:34:35;17.85;;;10.50;;
60582;SDS011;46415;47.536;19.066;2022-11-15T10:37:38;19.92;;;10.95;;
60582;SDS011;46415;47.536;19.066;2022-11-15T10:40:44;15.95;;;10.68;;
60582;SDS011;46415;47.536;19.066;2022-11-15T10:44:01;19.42;;;13.10;;
60582;SDS011;46415;47.536;19.066;2022-11-15T10:50:45;14.70;;;10.73;;
60582;SDS011;46415;47.536;19.066;2022-11-15T10:53:49;20.52;;;11.32;;
60582;SDS011;46415;47.536;19.066;2022-11-15T10:56:54;15.18;;;11.48;;
60582;SDS011;46415;47.536;19.066;2022-11-15T11:00:03;22.58;;;12.40;;
60582;SDS011;46415;47.536;19.066;2022-11-15T11:03:24;22.77;;;12.98;;
60582;SDS011;46415;47.536;19.066;2022-11-15T11:06:45;22.05;;;12.02;;
60582;SDS011;46415;47.536;19.066;2022-11-15T11:09:56;16.90;;;12.48;;
60582;SDS011;46415;47.536;19.066;2022-11-15T11:16:33;19.85;;;11.93;;
60582;SDS011;46415;47.536;19.066;2022-11-15T11:36:12;20.52;;;12.70;;
60582;SDS011;46415;47.536;19.066;2022-11-15T11:51:46;22.90;;;12.35;;
60582;SDS011;46415;47.536;19.066;2022-11-15T11:55:00;19.70;;;12.02;;
60582;SDS011;46415;47.536;19.066;2022-11-15T12:01:24;21.17;;;13.05;;
60582;SDS011;46415;47.536;19.066;2022-11-15T12:04:36;23.35;;;13.48;;
60582;SDS011;46415;47.536;19.066;2022-11-15T12:07:42;23.95;;;13.02;;
60582;SDS011;46415;47.536;19.066;2022-11-15T12:10:48;21.27;;;12.43;;
60582;SDS011;46415;47.536;19.066;2022-11-15T12:13:58;24.70;;;13.90;;
60582;SDS011;46415;47.536;19.066;2022-11-15T12:17:03;20.65;;;13.45;;
60582;SDS011;46415;47.536;19.066;2022-11-15T12:20:28;20.88;;;12.75;;
60582;SDS011;46415;47.536;19.066;2022-11-15T12:23:38;23.70;;;13.18;;
60582;SDS011;46415;47.536;19.066;2022-11-15T12:26:48;23.75;;;12.63;;
60582;SDS011;46415;47.536;19.066;2022-11-15T12:30:27;17.95;;;10.02;;
60582;SDS011;46415;47.536;19.066;2022-11-15T12:33:47;24.37;;;11.50;;
60582;SDS011;46415;47.536;19.066;2022-11-15T12:36:51;24.42;;;12.65;;
60582;SDS011;46415;47.536;19.066;2022-11-15T12:52:26;22.35;;;13.10;;
60582;SDS011;46415;47.536;19.066;2022-11-15T12:55:30;23.02;;;13.75;;
60582;SDS011;46415;47.536;19.066;2022-11-15T12:58:50;22.67;;;14.07;;
60582;SDS011;46415;47.536;19.066;2022-11-15T13:01:57;28.00;;;14.70;;
60582;SDS011;46415;47.536;19.066;2022-11-15T13:08:34;23.87;;;13.75;;
60582;SDS011;46415;47.536;19.066;2022-11-15T13:11:42;19.98;;;12.80;;
60582;SDS011;46415;47.536;19.066;2022-11-15T13:14:47;22.17;;;14.48;;
60582;SDS011;46415;47.536;19.066;2022-11-15T13:17:53;25.40;;;15.05;;
60582;SDS011;46415;47.536;19.066;2022-11-15T13:20:57;30.75;;;15.98;;
60582;SDS011;46415;47.536;19.066;2022-11-15T13:24:04;28.75;;;14.77;;
60582;SDS011;46415;47.536;19.066;2022-11-15T13:27:17;27.10;;;16.12;;
60582;SDS011;46415;47.536;19.066;2022-11-15T13:30:22;28.27;;;15.15;;
60582;SDS011;46415;47.536;19.066;2022-11-15T13:33:32;27.87;;;14.80;;
60582;SDS011;46415;47.536;19.066;2022-11-15T13:36:37;27.35;;;14.50;;
60582;SDS011;46415;47.536;19.066;2022-11-15T13:39:40;27.65;;;13.70;;
60582;SDS011;46415;47.536;19.066;2022-11-15T13:42:42;26.90;;;14.48;;
60582;SDS011;46415;47.536;19.066;2022-11-15T13:49:29;20.58;;;13.10;;
60582;SDS011;46415;47.536;19.066;2022-11-15T13:52:34;25.60;;;14.07;;
60582;SDS011;46415;47.536;19.066;2022-11-15T13:55:39;20.40;;;12.77;;
60582;SDS011;46415;47.536;19.066;2022-11-15T13:58:42;26.23;;;14.70;;
60582;SDS011;46415;47.536;19.066;2022-11-15T14:01:44;23.55;;;11.75;;
60582;SDS011;46415;47.536;19.066;2022-11-15T14:04:48;22.52;;;12.20;;
60582;SDS011;46415;47.536;19.066;2022-11-15T14:07:54;20.37;;;11.95;;
60582;SDS011;46415;47.536;19.066;2022-11-15T14:14:30;21.50;;;11.65;;
60582;SDS011;46415;47.536;19.066;2022-11-15T14:17:35;21.85;;;12.40;;
60582;SDS011;46415;47.536;19.066;2022-11-15T14:20:40;23.27;;;12.80;;
60582;SDS011;46415;47.536;19.066;2022-11-15T14:23:43;16.65;;;10.32;;
60582;SDS011;46415;47.536;19.066;2022-11-15T14:26:46;22.83;;;11.98;;
60582;SDS011;46415;47.536;19.066;2022-11-15T14:29:49;21.52;;;12.43;;
60582;SDS011;46415;47.536;19.066;2022-11-15T14:32:53;21.37;;;12.77;;
60582;SDS011;46415;47.536;19.066;2022-11-15T14:35:56;22.00;;;12.10;;
60582;SDS011;46415;47.536;19.066;2022-11-15T14:39:00;23.25;;;13.98;;
60582;SDS011;46415;47.536;19.066;2022-11-15T14:42:05;23.38;;;13.25;;
60582;SDS011;46415;47.536;19.066;2022-11-15T14:45:18;29.15;;;12.63;;
60582;SDS011;46415;47.536;19.066;2022-11-15T14:48:22;28.02;;;13.32;;
60582;SDS011;46415;47.536;19.066;2022-11-15T14:51:25;26.27;;;13.48;;
60582;SDS011;46415;47.536;19.066;2022-11-15T14:54:28;20.65;;;12.40;;
60582;SDS011;46415;47.536;19.066;2022-11-15T14:57:31;22.60;;;11.65;;
60582;SDS011;46415;47.536;19.066;2022-11-15T15:00:35;23.55;;;13.90;;
60582;SDS011;46415;47.536;19.066;2022-11-15T15:03:39;22.67;;;12.93;;
60582;SDS011;46415;47.536;19.066;2022-11-15T15:06:42;31.92;;;13.68;;
60582;SDS011;46415;47.536;19.066;2022-11-15T15:09:45;21.77;;;12.50;;
60582;SDS011;46415;47.536;19.066;2022-11-15T15:12:48;23.23;;;12.37;;
60582;SDS011;46415;47.536;19.066;2022-11-15T15:15:51;25.90;;;14.25;;
60582;SDS011;46415;47.536;19.066;2022-11-15T15:18:54;21.52;;;11.43;;
60582;SDS011;46415;47.536;19.066;2022-11-15T15:21:56;18.98;;;10.65;;
60582;SDS011;46415;47.536;19.066;2022-11-15T15:24:59;18.80;;;12.32;;
60582;SDS011;46415;47.536;19.066;2022-11-15T15:28:02;18.58;;;11.75;;
60582;SDS011;46415;47.536;19.066;2022-11-15T15:31:05;20.37;;;10.88;;
60582;SDS011;46415;47.536;19.066;2022-11-15T15:34:07;19.83;;;11.85;;
60582;SDS011;46415;47.536;19.066;2022-11-15T15:37:25;22.35;;;12.52;;
60582;SDS011;46415;47.536;19.066;2022-11-15T15:40:29;21.50;;;11.05;;
60582;SDS011;46415;47.536;19.066;2022-11-15T15:43:34;21.12;;;10.98;;
60582;SDS011;46415;47.536;19.066;2022-11-15T15:46:36;19.48;;;11.85;;
60582;SDS011;46415;47.536;19.066;2022-11-15T15:49:39;23.30;;;11.80;;
60582;SDS011;46415;47.536;19.066;2022-11-15T15:52:42;18.33;;;10.00;;
60582;SDS011;46415;47.536;19.066;2022-11-15T15:55:44;18.10;;;11.25;;
60582;SDS011;46415;47.536;19.066;2022-11-15T15:58:47;18.05;;;10.90;;
60582;SDS011;46415;47.536;19.066;2022-11-15T16:01:50;16.40;;;10.38;;
60582;SDS011;46415;47.536;19.066;2022-11-15T16:04:52;16.02;;;9.98;;
60582;SDS011;46415;47.536;19.066;2022-11-15T16:07:55;15.50;;;9.10;;
60582;SDS011;46415;47.536;19.066;2022-11-15T16:10:58;18.20;;;10.45;;
60582;SDS011;46415;47.536;19.066;2022-11-15T16:14:01;19.27;;;10.82;;
60582;SDS011;46415;47.536;19.066;2022-11-15T16:17:03;16.12;;;10.80;;
60582;SDS011;46415;47.536;19.066;2022-11-15T16:20:06;20.30;;;11.35;;
60582;SDS011;46415;47.536;19.066;2022-11-15T16:23:10;14.48;;;9.25;;
60582;SDS011;46415;47.536;19.066;2022-11-15T16:26:21;18.17;;;10.73;;
60582;SDS011;46415;47.536;19.066;2022-11-15T16:29:27;18.65;;;9.82;;
60582;SDS011;46415;47.536;19.066;2022-11-15T16:32:30;17.73;;;10.43;;
60582;SDS011;46415;47.536;19.066;2022-11-15T16:35:33;17.42;;;10.85;;
60582;SDS011;46415;47.536;19.066;2022-11-15T16:38:35;21.98;;;11.82;;
60582;SDS011;46415;47.536;19.066;2022-11-15T16:41:39;21.50;;;12.20;;
60582;SDS011;46415;47.536;19.066;2022-11-15T16:44:42;20.67;;;11.02;;
60582;SDS011;46415;47.536;19.066;2022-11-15T16:47:46;19.48;;;10.35;;
60582;SDS011;46415;47.536;19.066;2022-11-15T16:50:50;18.60;;;11.52;;
60582;SDS011;46415;47.536;19.066;2022-11-15T16:53:57;19.87;;;11.10;;
60582;SDS011;46415;47.536;19.066;2022-11-15T16:57:00;21.85;;;11.65;;
60582;SDS011;46415;47.536;19.066;2022-11-15T17:00:03;18.95;;;11.30;;
60582;SDS011;46415;47.536;19.066;2022-11-15T17:03:06;20.60;;;11.07;;
60582;SDS011;46415;47.536;19.066;2022-11-15T17:06:09;18.37;;;10.75;;
60582;SDS011;46415;47.536;19.066;2022-11-15T17:09:21;20.23;;;11.35;;
60582;SDS011;46415;47.536;19.066;2022-11-15T17:12:27;18.10;;;11.18;;
60582;SDS011;46415;47.536;19.066;2022-11-15T17:15:32;26.37;;;13.62;;
60582;SDS011;46415;47.536;19.066;2022-11-15T17:18:35;22.20;;;12.15;;
60582;SDS011;46415;47.536;19.066;2022-11-15T17:21:38;22.23;;;12.73;;
60582;SDS011;46415;47.536;19.066;2022-11-15T17:24:41;23.75;;;13.15;;
60582;SDS011;46415;47.536;19.066;2022-11-15T17:27:46;22.55;;;13.32;;
60582;SDS011;46415;47.536;19.066;2022-11-15T17:30:51;29.92;;;14.45;;
60582;SDS011;46415;47.536;19.066;2022-11-15T17:33:55;21.20;;;11.88;;
60582;SDS011;46415;47.536;19.066;2022-11-15T17:36:58;25.50;;;13.57;;
60582;SDS011;46415;47.536;19.066;2022-11-15T17:40:00;24.87;;;14.87;;
60582;SDS011;46415;47.536;19.066;2022-11-15T17:43:04;25.40;;;13.80;;
60582;SDS011;46415;47.536;19.066;2022-11-15T17:46:09;24.35;;;14.27;;
60582;SDS011;46415;47.536;19.066;2022-11-15T17:49:14;27.33;;;13.77;;
60582;SDS011;46415;47.536;19.066;2022-11-15T17:52:16;24.52;;;14.45;;
60582;SDS011;46415;47.536;19.066;2022-11-15T17:55:19;23.23;;;13.98;;
60582;SDS011;46415;47.536;19.066;2022-11-15T17:58:22;27.73;;;14.98;;
60582;SDS011;46415;47.536;19.066;2022-11-15T18:01:26;29.73;;;14.10;;
60582;SDS011;46415;47.536;19.066;2022-11-15T18:04:31;31.00;;;14.38;;
60582;SDS011;46415;47.536;19.066;2022-11-15T18:07:33;27.15;;;14.70;;
60582;SDS011;46415;47.536;19.066;2022-11-15T18:10:37;23.67;;;12.68;;
60582;SDS011;46415;47.536;19.066;2022-11-15T18:13:40;21.52;;;13.40;;
60582;SDS011;46415;47.536;19.066;2022-11-15T18:16:45;25.88;;;13.88;;
60582;SDS011;46415;47.536;19.066;2022-11-15T18:19:48;25.75;;;13.77;;
60582;SDS011;46415;47.536;19.066;2022-11-15T18:22:51;20.75;;;12.73;;
60582;SDS011;46415;47.536;19.066;2022-11-15T18:25:55;24.60;;;11.70;;
60582;SDS011;46415;47.536;19.066;2022-11-15T18:29:01;29.35;;;14.82;;
60582;SDS011;46415;47.536;19.066;2022-11-15T18:32:05;28.20;;;14.18;;
60582;SDS011;46415;47.536;19.066;2022-11-15T18:35:13;23.10;;;12.88;;
60582;SDS011;46415;47.536;19.066;2022-11-15T18:38:16;27.00;;;14.20;;
60582;SDS011;46415;47.536;19.066;2022-11-15T18:41:19;23.58;;;12.18;;
60582;SDS011;46415;47.536;19.066;2022-11-15T18:44:29;23.98;;;12.88;;
60582;SDS011;46415;47.536;19.066;2022-11-15T18:47:32;25.42;;;12.60;;
60582;SDS011;46415;47.536;19.066;2022-11-15T18:50:35;21.25;;;12.48;;
60582;SDS011;46415;47.536;19.066;2022-11-15T18:53:38;20.08;;;12.93;;
60582;SDS011;46415;47.536;19.066;2022-11-15T18:56:42;21.87;;;10.73;;
60582;SDS011;46415;47.536;19.066;2022-11-15T18:59:46;20.50;;;12.37;;
60582;SDS011;46415;47.536;19.066;2022-11-15T19:02:49;28.65;;;12.32;;
60582;SDS011;46415;47.536;19.066;2022-11-15T19:05:59;24.08;;;14.10;;
60582;SDS011;46415;47.536;19.066;2022-11-15T19:09:06;31.52;;;13.62;;
60582;SDS011;46415;47.536;19.066;2022-11-15T19:12:10;26.92;;;14.43;;
60582;SDS011;46415;47.536;19.066;2022-11-15T19:15:13;22.15;;;13.45;;
60582;SDS011;46415;47.536;19.066;2022-11-15T19:18:15;27.50;;;12.63;;
60582;SDS011;46415;47.536;19.066;2022-11-15T19:21:18;25.58;;;13.02;;
60582;SDS011;46415;47.536;19.066;2022-11-15T19:24:21;20.67;;;12.82;;
60582;SDS011;46415;47.536;19.066;2022-11-15T19:27:24;24.65;;;13.75;;
60582;SDS011;46415;47.536;19.066;2022-11-15T19:30:29;27.85;;;13.93;;
60582;SDS011;46415;47.536;19.066;2022-11-15T19:33:31;28.25;;;13.60;;
60582;SDS011;46415;47.536;19.066;2022-11-15T19:36:37;25.80;;;13.65;;
60582;SDS011;46415;47.536;19.066;2022-11-15T19:39:42;26.42;;;13.98;;
60582;SDS011;46415;47.536;19.066;2022-11-15T19:42:45;23.92;;;13.27;;
60582;SDS011;46415;47.536;19.066;2022-11-15T19:45:51;25.65;;;13.32;;
60582;SDS011;46415;47.536;19.066;2022-11-15T19:49:02;32.60;;;15.40;;
60582;SDS011;46415;47.536;19.066;2022-11-15T19:52:05;30.73;;;16.02;;
60582;SDS011;46415;47.536;19.066;2022-11-15T19:55:08;27.67;;;13.48;;
60582;SDS011;46415;47.536;19.066;2022-11-15T19:58:11;28.08;;;14.02;;
60582;SDS011;46415;47.536;19.066;2022-11-15T20:04:21;26.65;;;13.10;;
60582;SDS011;46415;47.536;19.066;2022-11-15T20:07:23;29.73;;;13.07;;
60582;SDS011;46415;47.536;19.066;2022-11-15T20:10:27;27.08;;;13.05;;
60582;SDS011;46415;47.536;19.066;2022-11-15T20:13:29;31.02;;;15.30;;
60582;SDS011;46415;47.536;19.066;2022-11-15T20:16:32;30.25;;;14.63;;
60582;SDS011;46415;47.536;19.066;2022-11-15T20:19:35;34.80;;;15.50;;
60582;SDS011;46415;47.536;19.066;2022-11-15T20:22:37;30.48;;;14.02;;
60582;SDS011;46415;47.536;19.066;2022-11-15T20:25:43;30.75;;;14.15;;
60582;SDS011;46415;47.536;19.066;2022-11-15T20:28:47;33.28;;;16.42;;
60582;SDS011;46415;47.536;19.066;2022-11-15T20:31:50;30.25;;;13.50;;
60582;SDS011;46415;47.536;19.066;2022-11-15T20:34:53;36.50;;;15.98;;
60582;SDS011;46415;47.536;19.066;2022-11-15T20:37:56;32.95;;;16.27;;
60582;SDS011;46415;47.536;19.066;2022-11-15T20:40:59;36.35;;;15.45;;
60582;SDS011;46415;47.536;19.066;2022-11-15T20:44:01;27.50;;;15.05;;